Time;durP1;ratioP1;P1;durP2;ratioP2;P2;SDS_P1;SDS_P2;PMS_P1;PMS_P2;Temp;Humidity;BMP_temperature;BMP_pressure;BME280_temperature;BME280_humidity;BME280_pressure;Samples;Min_cycle;Max_cycle;Signal;HPM_P1;HPM_P2
2022/06/05 00:02:44;;;;;;;;;12.50;9.25;;;;;-146.59;100.00;59519.28;5033977;28;51127;-89
2022/06/05 00:06:01;;;;;;;;;12.50;8.75;;;;;-146.59;100.00;59519.28;5048387;28;51347;-89
2022/06/05 00:09:25;;;;;;;;;15.75;9.00;;;;;-146.59;100.00;59519.28;5063890;28;51411;-89
2022/06/05 00:12:13;;;;;;;;;6.25;6.25;;;;;-146.59;100.00;59519.28;5048555;28;51119;-88
2022/06/05 00:14:59;;;;;;;;;11.50;8.25;;;;;-146.59;100.00;59519.28;5049023;28;51261;-89
2022/06/05 00:18:11;;;;;;;;;10.50;10.25;;;;;-146.59;100.00;59519.28;5005814;28;52029;-88
2022/06/05 00:20:59;;;;;;;;;7.00;6.75;;;;;-146.59;100.00;59519.28;5007231;28;51648;-89
2022/06/05 00:23:46;;;;;;;;;9.50;8.00;;;;;-146.59;100.00;59519.28;5016265;28;51151;-89
2022/06/05 00:27:03;;;;;;;;;9.00;7.25;;;;;-146.59;100.00;59519.28;5008355;28;51217;-89
2022/06/05 00:29:57;;;;;;;;;8.50;8.00;;;;;-146.59;100.00;59519.28;5006564;28;51268;-88
2022/06/05 00:33:22;;;;;;;;;11.00;7.25;;;;;-146.59;100.00;59519.28;5007201;28;51196;-89
2022/06/05 00:36:38;;;;;;;;;8.75;7.50;;;;;-146.59;100.00;59519.28;5013157;28;51222;-89
2022/06/05 00:39:43;;;;;;;;;11.00;8.00;;;;;-146.59;100.00;59519.28;5003444;28;51267;-89
2022/06/05 00:42:33;;;;;;;;;9.75;7.50;;;;;-146.59;100.00;59519.28;5008124;28;51068;-88
2022/06/05 00:45:21;;;;;;;;;7.75;7.75;;;;;-146.59;100.00;59519.28;5009328;28;51506;-88
2022/06/05 00:48:07;;;;;;;;;11.00;8.00;;;;;-146.59;100.00;59519.28;4996467;28;51274;-88
2022/06/05 00:50:53;;;;;;;;;13.75;7.00;;;;;-146.59;100.00;59519.28;5008949;28;51375;-88
2022/06/05 00:53:44;;;;;;;;;9.75;8.50;;;;;-146.59;100.00;59519.28;5008943;28;51201;-89
2022/06/05 00:56:38;;;;;;;;;13.00;10.25;;;;;-146.59;100.00;59519.28;5050323;28;51417;-89
2022/06/05 00:59:23;;;;;;;;;8.50;8.25;;;;;-146.59;100.00;59519.28;5044330;28;51199;-89
2022/06/05 01:02:10;;;;;;;;;10.25;9.00;;;;;-146.59;100.00;59519.28;5046195;28;51257;-89
2022/06/05 01:05:04;;;;;;;;;14.50;14.25;;;;;-146.59;100.00;59519.28;5034494;28;51191;-89
2022/06/05 01:08:00;;;;;;;;;28.75;25.50;;;;;-146.59;100.00;59519.28;5064107;28;51252;-89
2022/06/05 01:11:16;;;;;;;;;30.00;27.00;;;;;-146.59;100.00;59519.28;5062591;28;51438;-88
2022/06/05 01:14:40;;;;;;;;;31.00;28.50;;;;;-146.59;100.00;59519.28;5061559;28;51560;-89
2022/06/05 01:17:56;;;;;;;;;31.25;28.00;;;;;-146.59;100.00;59519.28;5061004;28;51194;-87
2022/06/05 01:21:17;;;;;;;;;29.25;28.75;;;;;-146.59;100.00;59519.28;5049952;28;51262;-88
2022/06/05 01:24:35;;;;;;;;;37.25;29.25;;;;;-146.59;100.00;59519.28;5049744;28;51202;-89
2022/06/05 01:27:26;;;;;;;;;35.50;31.50;;;;;-146.59;100.00;59519.28;5049931;28;51121;-88
2022/06/05 01:30:23;;;;;;;;;39.00;31.00;;;;;-146.59;100.00;59519.28;5050180;28;51624;-88
2022/06/05 01:33:20;;;;;;;;;38.75;30.75;;;;;-146.59;100.00;59519.28;5064988;28;51193;-88
2022/06/05 01:36:17;;;;;;;;;36.25;30.00;;;;;-146.59;100.00;59519.28;5034620;28;51360;-87
2022/06/05 01:39:12;;;;;;;;;35.00;30.75;;;;;-146.59;100.00;59519.28;5049242;28;51181;-88
2022/06/05 01:42:06;;;;;;;;;36.00;30.50;;;;;-146.59;100.00;59519.28;5048931;28;51947;-88
2022/06/05 01:44:58;;;;;;;;;32.50;27.50;;;;;-146.59;100.00;59519.28;5049016;28;51243;-89
2022/06/05 01:47:58;;;;;;;;;32.00;26.00;;;;;-146.59;100.00;59519.28;5046578;28;51286;-88
2022/06/05 01:50:58;;;;;;;;;28.25;26.00;;;;;-146.59;100.00;59519.28;4988809;28;51309;-88
2022/06/05 01:53:47;;;;;;;;;18.00;18.00;;;;;-146.59;100.00;59519.28;4984597;28;51249;-89
2022/06/05 01:56:45;;;;;;;;;19.00;16.25;;;;;-146.59;100.00;59519.28;5015715;28;51370;-88
2022/06/05 01:59:31;;;;;;;;;18.50;16.75;;;;;-146.59;100.00;59519.28;4998939;28;51887;-88
2022/06/05 02:02:22;;;;;;;;;18.00;14.00;;;;;-146.59;100.00;59519.28;5002880;28;51174;-88
2022/06/05 02:05:13;;;;;;;;;16.25;15.00;;;;;-146.59;100.00;59519.28;5002696;28;51275;-88
2022/06/05 02:08:07;;;;;;;;;14.75;14.75;;;;;-146.59;100.00;59519.28;5017644;28;51310;-88
2022/06/05 02:10:59;;;;;;;;;16.50;13.00;;;;;-146.59;100.00;59519.28;4988923;28;51360;-88
2022/06/05 02:13:47;;;;;;;;;14.75;11.75;;;;;-146.59;100.00;59519.28;5001769;28;51267;-88
2022/06/05 02:16:35;;;;;;;;;17.50;12.50;;;;;-146.59;100.00;59519.28;5012456;28;51448;-88
2022/06/05 02:19:33;;;;;;;;;14.75;13.25;;;;;-146.59;100.00;59519.28;4986635;28;51305;-88
2022/06/05 02:22:31;;;;;;;;;16.75;13.25;;;;;-146.59;100.00;59519.28;5001093;28;51281;-88
2022/06/05 02:25:18;;;;;;;;;13.50;11.00;;;;;-146.59;100.00;59519.28;5000581;28;51080;-88
2022/06/05 02:28:03;;;;;;;;;15.50;12.50;;;;;-146.59;100.00;59519.28;5016712;28;51190;-88
2022/06/05 02:31:19;;;;;;;;;13.00;11.75;;;;;-146.59;100.00;59519.28;5034780;28;51600;-88
2022/06/05 02:34:34;;;;;;;;;16.50;13.00;;;;;-146.59;100.00;59519.28;5062225;28;51535;-88
2022/06/05 02:38:14;;;;;;;;;16.25;13.00;;;;;-146.59;100.00;59519.28;5048080;28;51210;-88
2022/06/05 02:41:28;;;;;;;;;14.75;12.50;;;;;-146.59;100.00;59519.28;5063580;28;51270;-89
2022/06/05 02:44:34;;;;;;;;;10.00;9.25;;;;;-146.59;100.00;59519.28;5058732;28;51090;-89
2022/06/05 02:47:57;;;;;;;;;11.75;11.25;;;;;-146.59;100.00;59519.28;5064380;28;51161;-88
2022/06/05 02:51:03;;;;;;;;;16.50;14.25;;;;;-146.59;100.00;59519.28;5042355;28;51248;-88
2022/06/05 02:54:06;;;;;;;;;13.75;13.25;;;;;-146.59;100.00;59519.28;5037723;28;51192;-89
2022/06/05 02:56:51;;;;;;;;;17.25;12.00;;;;;-146.59;100.00;59519.28;5035247;28;51283;-88
2022/06/05 02:59:46;;;;;;;;;13.25;12.00;;;;;-146.59;100.00;59519.28;5041801;28;51088;-88
2022/06/05 03:05:41;;;;;;;;;14.50;12.25;;;;;-146.59;100.00;59519.28;5038694;28;51185;-88
2022/06/05 03:08:30;;;;;;;;;18.75;12.00;;;;;-146.59;100.00;59519.28;5043477;28;51249;-89
2022/06/05 03:11:22;;;;;;;;;19.75;13.75;;;;;-146.59;100.00;59519.28;5040956;28;51401;-88
2022/06/05 03:14:23;;;;;;;;;22.75;15.25;;;;;-146.59;100.00;59519.28;5070597;27;51234;-88
2022/06/05 03:17:30;;;;;;;;;16.25;13.50;;;;;-146.59;100.00;59519.28;5043493;28;51126;-88
2022/06/05 03:20:22;;;;;;;;;18.25;16.50;;;;;-146.59;100.00;59519.28;5041880;28;51195;-89
2022/06/05 03:23:16;;;;;;;;;15.00;13.00;;;;;-146.59;100.00;59519.28;5040170;28;52295;-89
2022/06/05 03:26:03;;;;;;;;;17.75;15.25;;;;;-146.59;100.00;59519.28;5045806;28;51332;-87
2022/06/05 03:29:20;;;;;;;;;19.75;16.75;;;;;-146.59;100.00;59519.28;5057277;28;50726;-88
2022/06/05 03:32:07;;;;;;;;;17.75;14.25;;;;;-146.59;100.00;59519.28;5051995;28;51091;-88
2022/06/05 03:34:54;;;;;;;;;15.00;13.75;;;;;-146.59;100.00;59519.28;5067356;28;50435;-88
2022/06/05 03:37:41;;;;;;;;;16.25;14.50;;;;;-146.59;100.00;59519.28;5042543;28;51030;-88
2022/06/05 03:40:32;;;;;;;;;17.00;13.00;;;;;-146.59;100.00;59519.28;5050590;28;50522;-88
2022/06/05 03:43:29;;;;;;;;;17.50;13.50;;;;;-146.59;100.00;59519.28;5055367;28;51146;-88
2022/06/05 03:46:34;;;;;;;;;18.50;15.00;;;;;-146.59;100.00;59519.28;5041812;28;51059;-88
2022/06/05 03:49:43;;;;;;;;;21.50;16.25;;;;;-146.59;100.00;59519.28;5056636;28;50547;-88
2022/06/05 03:53:01;;;;;;;;;19.25;16.00;;;;;-146.59;100.00;59519.28;4995708;28;50524;-87
2022/06/05 03:55:48;;;;;;;;;18.75;16.00;;;;;-146.59;100.00;59519.28;4994567;28;50822;-87
2022/06/05 03:58:40;;;;;;;;;15.50;15.50;;;;;-146.59;100.00;59519.28;4990574;28;50531;-88
2022/06/05 04:01:28;;;;;;;;;20.50;17.75;;;;;-146.59;100.00;59519.28;4994274;28;51258;-87
2022/06/05 04:04:23;;;;;;;;;20.00;17.00;;;;;-146.59;100.00;59519.28;4959602;28;51217;-88
2022/06/05 04:07:07;;;;;;;;;18.25;15.50;;;;;-146.59;100.00;59519.28;4980620;28;51215;-88
2022/06/05 04:09:52;;;;;;;;;15.75;15.25;;;;;-146.59;100.00;59519.28;4967391;28;51263;-88
2022/06/05 04:12:46;;;;;;;;;19.50;17.25;;;;;-146.59;100.00;59519.28;4958426;28;51070;-88
2022/06/05 04:15:36;;;;;;;;;33.75;25.75;;;;;-146.59;100.00;59519.28;4980707;28;51110;-88
2022/06/05 04:18:25;;;;;;;;;21.00;18.75;;;;;-146.59;100.00;59519.28;4979871;28;51367;-88
2022/06/05 04:21:25;;;;;;;;;25.75;19.75;;;;;-146.59;100.00;59519.28;4960311;28;50784;-88
2022/06/05 04:24:17;;;;;;;;;33.25;27.75;;;;;-146.59;100.00;59519.28;5016910;28;51172;-88
2022/06/05 04:27:07;;;;;;;;;25.75;18.75;;;;;-146.59;100.00;59519.28;5021105;28;51090;-88
2022/06/05 04:29:54;;;;;;;;;23.75;21.50;;;;;-146.59;100.00;59519.28;5033989;28;51078;-89
2022/06/05 04:32:42;;;;;;;;;21.50;17.50;;;;;-146.59;100.00;59519.28;5029637;28;50837;-88
2022/06/05 04:35:32;;;;;;;;;18.50;18.50;;;;;-146.59;100.00;59519.28;5027357;28;51848;-88
2022/06/05 04:38:21;;;;;;;;;23.00;19.00;;;;;-146.59;100.00;59519.28;5033833;28;50597;-89
2022/06/05 04:41:07;;;;;;;;;24.25;19.50;;;;;-146.59;100.00;59519.28;5031372;28;51084;-87
2022/06/05 04:43:56;;;;;;;;;21.25;17.25;;;;;-146.59;100.00;59519.28;5032429;28;51289;-88
2022/06/05 04:46:44;;;;;;;;;22.00;16.75;;;;;-146.59;100.00;59519.28;5034992;28;51271;-88
2022/06/05 04:49:32;;;;;;;;;24.00;19.25;;;;;-146.59;100.00;59519.28;5035576;28;51131;-86
2022/06/05 04:52:28;;;;;;;;;33.25;22.50;;;;;-146.59;100.00;59519.28;5023698;28;51213;-88
2022/06/05 04:55:20;;;;;;;;;24.75;22.50;;;;;-146.59;100.00;59519.28;5037697;28;51142;-88
2022/06/05 04:58:18;;;;;;;;;18.00;17.75;;;;;-146.59;100.00;59519.28;5033276;28;51066;-87
2022/06/05 05:01:22;;;;;;;;;22.25;18.00;;;;;-146.59;100.00;59519.28;5035738;28;50738;-88
2022/06/05 05:04:16;;;;;;;;;25.25;20.00;;;;;-146.59;100.00;59519.28;5036983;28;51104;-87
2022/06/05 05:07:04;;;;;;;;;22.50;17.00;;;;;-146.59;100.00;59519.28;5038277;28;51576;-88
2022/06/05 05:10:02;;;;;;;;;20.25;16.25;;;;;-146.59;100.00;59519.28;5034017;28;51226;-87
2022/06/05 05:13:11;;;;;;;;;19.25;15.75;;;;;-146.59;100.00;59519.28;5037653;28;51374;-89
2022/06/05 05:16:07;;;;;;;;;20.25;18.25;;;;;-146.59;100.00;59519.28;5038092;28;51082;-88
2022/06/05 05:18:57;;;;;;;;;23.75;20.75;;;;;-146.59;100.00;59519.28;5038275;28;50409;-87
2022/06/05 05:21:55;;;;;;;;;21.25;20.00;;;;;-146.59;100.00;59519.28;5037441;28;51049;-88
2022/06/05 05:25:04;;;;;;;;;22.75;19.75;;;;;-146.59;100.00;59519.28;5030868;28;51270;-88
2022/06/05 05:28:09;;;;;;;;;47.75;40.75;;;;;-146.59;100.00;59519.28;5036342;28;51213;-88
2022/06/05 05:30:55;;;;;;;;;30.00;26.50;;;;;-146.59;100.00;59519.28;5022516;28;50520;-87
2022/06/05 05:33:44;;;;;;;;;28.50;21.50;;;;;-146.59;100.00;59519.28;5049079;28;51121;-88
2022/06/05 05:36:29;;;;;;;;;22.50;19.25;;;;;-146.59;100.00;59519.28;5034822;28;51021;-88
2022/06/05 05:42:21;;;;;;;;;20.75;20.50;;;;;-146.59;100.00;59519.28;5035018;28;51180;-88
2022/06/05 05:45:12;;;;;;;;;26.75;23.75;;;;;-146.59;100.00;59519.28;5039639;28;50567;-88
2022/06/05 05:47:59;;;;;;;;;30.25;28.25;;;;;-146.59;100.00;59519.28;5021571;28;51258;-88
2022/06/05 05:50:55;;;;;;;;;29.75;26.25;;;;;-146.59;100.00;59519.28;5042534;28;51057;-88
2022/06/05 05:53:44;;;;;;;;;33.75;27.50;;;;;-146.59;100.00;59519.28;5050473;28;51445;-88
2022/06/05 05:56:29;;;;;;;;;33.75;30.00;;;;;-146.59;100.00;59519.28;5069581;28;50460;-88
2022/06/05 05:59:16;;;;;;;;;27.75;22.75;;;;;-146.59;100.00;59519.28;5038492;28;50666;-88
2022/06/05 06:02:41;;;;;;;;;27.25;23.50;;;;;-146.59;100.00;59519.28;5056895;28;51110;-88
2022/06/05 06:05:27;;;;;;;;;25.50;24.50;;;;;-146.59;100.00;59519.28;5053173;28;51328;-88
2022/06/05 06:08:20;;;;;;;;;8.25;7.50;;;;;-146.59;100.00;59519.28;5049985;28;50572;-88
2022/06/05 06:11:36;;;;;;;;;16.00;10.25;;;;;-146.59;100.00;59519.28;5056198;28;51352;-88
2022/06/05 06:14:22;;;;;;;;;14.25;10.00;;;;;-146.59;100.00;59519.28;5077843;27;50953;-87
2022/06/05 06:17:07;;;;;;;;;3.00;0.00;;;;;-146.59;100.00;59519.28;5034278;28;51248;-88
2022/06/05 06:19:56;;;;;;;;;5.25;4.75;;;;;-146.59;100.00;59519.28;5025820;28;51251;-88
2022/06/05 06:22:58;;;;;;;;;7.25;5.00;;;;;-146.59;100.00;59519.28;5041692;28;51237;-87
2022/06/05 06:25:56;;;;;;;;;4.00;3.25;;;;;-146.59;100.00;59519.28;5044179;28;51210;-88
2022/06/05 06:28:48;;;;;;;;;1.00;1.00;;;;;-146.59;100.00;59519.28;5043877;28;51253;-88
2022/06/05 06:31:35;;;;;;;;;2.25;1.50;;;;;-146.59;100.00;59519.28;5057719;28;51259;-87
2022/06/05 06:34:23;;;;;;;;;3.75;2.00;;;;;-146.59;100.00;59519.28;5059024;28;50859;-87
2022/06/05 06:37:14;;;;;;;;;4.50;4.50;;;;;-146.59;100.00;59519.28;5030144;28;51146;-88
2022/06/05 06:40:01;;;;;;;;;3.00;1.00;;;;;-146.59;100.00;59519.28;5046188;28;51167;-87
2022/06/05 06:42:49;;;;;;;;;5.00;3.25;;;;;-146.59;100.00;59519.28;5050263;28;52367;-83
2022/06/05 06:45:44;;;;;;;;;8.25;4.25;;;;;-146.59;100.00;59519.28;5040837;28;51202;-85
2022/06/05 06:48:38;;;;;;;;;5.75;1.75;;;;;-146.59;100.00;59519.28;5041621;28;51117;-82
2022/06/05 06:51:35;;;;;;;;;2.50;1.75;;;;;-146.59;100.00;59519.28;5038398;28;50906;-81
2022/06/05 06:54:24;;;;;;;;;1.00;0.00;;;;;-146.59;100.00;59519.28;5070647;27;51356;-83
2022/06/05 06:57:16;;;;;;;;;6.75;3.25;;;;;-146.59;100.00;59519.28;5042862;28;51088;-83
2022/06/05 07:00:18;;;;;;;;;3.50;3.50;;;;;-146.59;100.00;59519.28;5041927;28;51796;-82
2022/06/05 07:03:04;;;;;;;;;3.25;2.25;;;;;-146.59;100.00;59519.28;5021990;28;51184;-88
2022/06/05 07:05:50;;;;;;;;;9.50;3.75;;;;;-146.59;100.00;59519.28;5035759;28;51465;-88
2022/06/05 07:08:37;;;;;;;;;5.00;3.00;;;;;-146.59;100.00;59519.28;5042008;28;51210;-87
2022/06/05 07:11:26;;;;;;;;;5.50;3.50;;;;;-146.59;100.00;59519.28;5028129;28;51573;-88
2022/06/05 07:14:29;;;;;;;;;6.50;4.25;;;;;-146.59;100.00;59519.28;5053606;28;51111;-87
2022/06/05 07:17:16;;;;;;;;;11.00;5.00;;;;;-146.59;100.00;59519.28;5043644;28;51434;-86
2022/06/05 07:20:03;;;;;;;;;3.25;3.25;;;;;-146.59;100.00;59519.28;5029032;28;51168;-87
2022/06/05 07:22:50;;;;;;;;;6.75;4.00;;;;;-146.59;100.00;59519.28;5043932;28;51514;-87
2022/06/05 07:25:56;;;;;;;;;10.00;5.50;;;;;-146.59;100.00;59519.28;5042857;28;51252;-88
2022/06/05 07:28:55;;;;;;;;;7.75;7.25;;;;;-146.59;100.00;59519.28;5041931;28;51081;-85
2022/06/05 07:31:43;;;;;;;;;9.50;8.75;;;;;-146.59;100.00;59519.28;5026822;28;51224;-87
2022/06/05 07:34:32;;;;;;;;;8.00;7.00;;;;;-146.59;100.00;59519.28;5041282;28;51100;-88
2022/06/05 07:37:21;;;;;;;;;12.75;9.25;;;;;-146.59;100.00;59519.28;5077674;27;51296;-87
2022/06/05 07:40:13;;;;;;;;;11.25;8.00;;;;;-146.59;100.00;59519.28;5057683;28;51240;-87
2022/06/05 07:43:11;;;;;;;;;10.75;10.00;;;;;-146.59;100.00;59519.28;5057375;28;51005;-87
2022/06/05 07:46:24;;;;;;;;;5.25;2.50;;;;;-146.59;100.00;59519.28;5049633;28;51280;-86
2022/06/05 07:49:20;;;;;;;;;12.25;7.25;;;;;-146.59;100.00;59519.28;5044328;28;50973;-86
2022/06/05 07:55:41;;;;;;;;;12.50;7.00;;;;;-146.59;100.00;59519.28;5051012;28;51084;-87
2022/06/05 07:58:26;;;;;;;;;12.75;9.75;;;;;-146.59;100.00;59519.28;5057352;28;50684;-86
2022/06/05 08:01:14;;;;;;;;;14.25;11.75;;;;;-146.59;100.00;59519.28;5055558;28;50854;-86
2022/06/05 08:04:08;;;;;;;;;17.00;9.50;;;;;-146.59;100.00;59519.28;5058730;28;51449;-87
2022/06/05 08:06:58;;;;;;;;;10.25;6.25;;;;;-146.59;100.00;59519.28;5044477;28;51188;-86
2022/06/05 08:09:48;;;;;;;;;18.25;15.00;;;;;-146.59;100.00;59519.28;5061997;28;50493;-88
2022/06/05 08:12:38;;;;;;;;;12.25;11.75;;;;;-146.59;100.00;59519.28;5062061;28;50367;-88
2022/06/05 08:15:35;;;;;;;;;14.50;10.25;;;;;-146.59;100.00;59519.28;5060970;28;51168;-88
2022/06/05 08:18:27;;;;;;;;;13.00;11.00;;;;;-146.59;100.00;59519.28;5049868;28;51000;-87
2022/06/05 08:21:14;;;;;;;;;2.50;2.50;;;;;-146.59;100.00;59519.28;5068719;28;51083;-88
2022/06/05 08:24:27;;;;;;;;;10.75;8.00;;;;;-146.59;100.00;59519.28;5063750;28;50574;-87
2022/06/05 08:27:20;;;;;;;;;12.75;10.75;;;;;-146.59;100.00;59519.28;5082038;28;50914;-87
2022/06/05 08:30:07;;;;;;;;;20.50;12.25;;;;;-146.59;100.00;59519.28;5066343;28;50546;-89
2022/06/05 08:33:25;;;;;;;;;27.75;25.00;;;;;-146.59;100.00;59519.28;5068750;28;50478;-88
2022/06/05 08:36:24;;;;;;;;;18.25;16.50;;;;;-146.59;100.00;59519.28;5064964;28;50521;-82
2022/06/05 08:42:42;;;;;;;;;12.50;9.50;;;;;-146.59;100.00;59519.28;5048897;28;51102;-84
2022/06/05 08:46:12;;;;;;;;;12.75;10.00;;;;;-146.59;100.00;59519.28;5044560;28;51169;-84
2022/06/05 08:49:12;;;;;;;;;9.25;8.25;;;;;-146.59;100.00;59519.28;5035816;28;51217;-84
2022/06/05 08:52:27;;;;;;;;;9.75;8.00;;;;;-146.59;100.00;59519.28;5023132;28;51283;-85
2022/06/05 08:55:32;;;;;;;;;15.00;9.50;;;;;-146.59;100.00;59519.28;5037733;28;51153;-84
2022/06/05 08:58:44;;;;;;;;;17.50;16.75;;;;;-146.59;100.00;59519.28;5036928;28;51195;-88
2022/06/05 09:01:55;;;;;;;;;9.00;6.50;;;;;-146.59;100.00;59519.28;5027840;28;51325;-88
2022/06/05 09:04:56;;;;;;;;;15.25;14.00;;;;;-146.59;100.00;59519.28;5031554;28;51191;-88
2022/06/05 09:07:45;;;;;;;;;22.25;17.25;;;;;-146.59;100.00;59519.28;5029349;28;51069;-87
2022/06/05 09:10:37;;;;;;;;;19.00;15.25;;;;;-146.59;100.00;59519.28;5021441;28;50920;-88
2022/06/05 09:13:42;;;;;;;;;11.50;11.50;;;;;-146.59;100.00;59519.28;5013328;28;51195;-87
2022/06/05 09:16:29;;;;;;;;;16.50;13.50;;;;;-146.59;100.00;59519.28;5024644;28;51135;-87
2022/06/05 09:19:30;;;;;;;;;21.75;19.50;;;;;-146.59;100.00;59519.28;5041872;28;51337;-88
2022/06/05 09:22:29;;;;;;;;;16.50;15.75;;;;;-146.59;100.00;59519.28;5038382;28;51143;-87
2022/06/05 09:25:58;;;;;;;;;18.25;13.50;;;;;-146.59;100.00;59519.28;5019900;28;51263;-88
2022/06/05 09:29:06;;;;;;;;;18.75;14.75;;;;;-146.59;100.00;59519.28;5028130;28;51152;-88
2022/06/05 09:32:17;;;;;;;;;16.50;13.25;;;;;-146.59;100.00;59519.28;5048299;28;51315;-88
2022/06/05 09:35:22;;;;;;;;;24.50;16.00;;;;;-146.59;100.00;59519.28;5029753;28;51170;-88
2022/06/05 09:38:36;;;;;;;;;16.00;13.00;;;;;-146.59;100.00;59519.28;5032337;28;51270;-88
2022/06/05 09:41:32;;;;;;;;;19.00;14.75;;;;;-146.59;100.00;59519.28;5060846;28;51070;-87
2022/06/05 09:44:47;;;;;;;;;20.50;17.50;;;;;-146.59;100.00;59519.28;5038505;28;51134;-87
2022/06/05 09:47:57;;;;;;;;;19.50;17.50;;;;;-146.59;100.00;59519.28;5055186;28;51276;-86
2022/06/05 09:50:51;;;;;;;;;17.00;13.00;;;;;-146.59;100.00;59519.28;5042987;28;50962;-87
2022/06/05 09:54:10;;;;;;;;;15.25;15.00;;;;;-146.59;100.00;59519.28;5047670;28;51109;-88
2022/06/05 10:04:29;;;;;;;;;19.75;19.00;;;;;-146.59;100.00;59519.28;5055226;28;51348;-88
2022/06/05 10:07:22;;;;;;;;;24.25;20.00;;;;;-146.59;100.00;59519.28;5062066;28;51313;-89
2022/06/05 10:10:19;;;;;;;;;24.50;20.50;;;;;-146.59;100.00;59519.28;5045799;28;51203;-88
2022/06/05 10:13:21;;;;;;;;;19.00;16.25;;;;;-146.59;100.00;59519.28;5031648;28;51222;-88
2022/06/05 10:16:10;;;;;;;;;22.50;16.00;;;;;-146.59;100.00;59519.28;5031145;28;51295;-88
2022/06/05 10:19:13;;;;;;;;;20.50;17.00;;;;;-146.59;100.00;59519.28;5031240;28;50521;-88
2022/06/05 10:22:09;;;;;;;;;25.50;24.25;;;;;-146.59;100.00;59519.28;5045266;28;51172;-88
2022/06/05 10:25:25;;;;;;;;;14.25;11.00;;;;;-146.59;100.00;59519.28;5026462;28;50948;-88
2022/06/05 10:28:28;;;;;;;;;15.00;13.25;;;;;-146.59;100.00;59519.28;5049215;28;51227;-93
2022/06/05 10:32:06;;;;;;;;;15.50;11.75;;;;;-146.59;100.00;59519.28;5025998;28;50866;-92
2022/06/05 10:35:26;;;;;;;;;14.50;12.50;;;;;-146.59;100.00;59519.28;5061197;28;51096;-92
2022/06/05 10:38:52;;;;;;;;;22.25;18.50;;;;;-146.59;100.00;59519.28;5049678;28;50584;-92
2022/06/05 10:42:07;;;;;;;;;26.25;23.50;;;;;-146.59;100.00;59519.28;5066058;28;50518;-92
2022/06/05 10:45:35;;;;;;;;;20.25;17.00;;;;;-146.59;100.00;59519.28;5037242;28;50585;-91
2022/06/05 10:48:48;;;;;;;;;22.50;20.25;;;;;-146.59;100.00;59519.28;4988071;23;51295;-50
2022/06/05 10:52:16;;;;;;;;;12.50;9.25;;;;;-146.59;100.00;59519.28;4971642;28;51114;-53
2022/06/05 10:55:30;;;;;;;;;19.00;12.00;;;;;-146.59;100.00;59519.28;4966864;28;51078;-53
2022/06/05 10:58:25;;;;;;;;;12.50;11.75;;;;;-146.59;100.00;59519.28;4981155;28;51359;-55
2022/06/05 11:01:12;;;;;;;;;17.25;12.25;;;;;-146.59;100.00;59519.28;4965596;28;51154;-55
2022/06/05 11:04:15;;;;;;;;;12.50;9.00;;;;;-146.59;100.00;59519.28;4980978;28;51084;-54
2022/06/05 11:07:47;;;;;;;;;12.00;9.50;;;;;-146.59;100.00;59519.28;4980753;28;51100;-55
2022/06/05 11:14:09;;;;;;;;;16.50;11.75;;;;;-146.59;100.00;59519.28;4920291;28;51131;-55
2022/06/05 11:17:34;;;;;;;;;17.50;12.00;;;;;-146.59;100.00;59519.28;4976611;28;51220;-54
2022/06/05 11:21:03;;;;;;;;;18.25;12.50;;;;;-146.59;100.00;59519.28;4978128;28;51146;-55
2022/06/05 11:23:51;;;;;;;;;15.75;11.25;;;;;-146.59;100.00;59519.28;4978870;28;51099;-54
2022/06/05 11:27:07;;;;;;;;;10.50;9.75;;;;;-146.59;100.00;59519.28;4949970;28;51183;-54
2022/06/05 11:30:09;;;;;;;;;13.25;10.50;;;;;-146.59;100.00;59519.28;4975632;28;51076;-53
2022/06/05 11:33:14;;;;;;;;;14.25;12.00;;;;;-146.59;100.00;59519.28;4980190;28;51200;-55
2022/06/05 11:36:40;;;;;;;;;11.00;8.25;;;;;-146.59;100.00;59519.28;4965299;28;51198;-54
2022/06/05 11:39:53;;;;;;;;;7.75;7.25;;;;;-146.59;100.00;59519.28;4960437;28;51025;-53
2022/06/05 11:43:39;;;;;;;;;9.25;9.25;;;;;-146.59;100.00;59519.28;4980044;28;51351;-53
2022/06/05 11:46:54;;;;;;;;;13.00;9.00;;;;;-146.59;100.00;59519.28;4979379;28;51596;-49
2022/06/05 11:50:18;;;;;;;;;8.75;8.75;;;;;-146.59;100.00;59519.28;4976793;28;51166;-45
2022/06/05 11:53:25;;;;;;;;;13.50;9.25;;;;;-146.59;100.00;59519.28;4980145;28;51050;-42
2022/06/05 11:56:32;;;;;;;;;10.00;8.75;;;;;-146.59;100.00;59519.28;4980088;28;51227;-43
2022/06/05 11:59:53;;;;;;;;;13.25;8.00;;;;;-146.59;100.00;59519.28;4980368;28;51099;-41
2022/06/05 12:03:05;;;;;;;;;11.00;7.25;;;;;-146.59;100.00;59519.28;4979226;28;51056;-43
2022/06/05 12:06:34;;;;;;;;;7.25;6.25;;;;;-146.59;100.00;59519.28;4965176;28;51618;-44
2022/06/05 12:09:48;;;;;;;;;6.75;5.25;;;;;-146.59;100.00;59519.28;4980542;28;51278;-44
2022/06/05 12:12:50;;;;;;;;;13.00;5.50;;;;;-146.59;100.00;59519.28;4979398;28;51021;-41
2022/06/05 12:16:14;;;;;;;;;8.50;5.50;;;;;-146.59;100.00;59519.28;4979897;28;51266;-41
2022/06/05 12:19:24;;;;;;;;;4.25;4.25;;;;;-146.59;100.00;59519.28;4979747;28;51136;-44
2022/06/05 12:22:35;;;;;;;;;6.00;4.75;;;;;-146.59;100.00;59519.28;4979111;28;51048;-44
2022/06/05 12:26:04;;;;;;;;;5.00;4.50;;;;;-146.59;100.00;59519.28;4979537;28;51061;-43
2022/06/05 12:29:15;;;;;;;;;7.75;6.75;;;;;-146.59;100.00;59519.28;4979661;28;51333;-46
2022/06/05 12:32:26;;;;;;;;;7.75;5.00;;;;;-146.59;100.00;59519.28;4979893;28;51440;-44
2022/06/05 12:35:49;;;;;;;;;11.25;5.75;;;;;-146.59;100.00;59519.28;4979335;28;51112;-44
2022/06/05 12:39:14;;;;;;;;;7.25;4.50;;;;;-146.59;100.00;59519.28;4979980;28;51563;-42
2022/06/05 12:42:22;;;;;;;;;10.00;6.00;;;;;-146.59;100.00;59519.28;4979397;28;51407;-45
2022/06/05 12:45:20;;;;;;;;;10.00;5.50;;;;;-146.59;100.00;59519.28;4964655;28;51106;-44
2022/06/05 12:48:22;;;;;;;;;13.25;8.25;;;;;-146.59;100.00;59519.28;4979118;28;51193;-46
2022/06/05 12:51:21;;;;;;;;;7.25;7.00;;;;;-146.59;100.00;59519.28;4965047;28;51191;-44
2022/06/05 12:54:35;;;;;;;;;8.75;5.25;;;;;-146.59;100.00;59519.28;4979096;28;51578;-42
2022/06/05 12:57:36;;;;;;;;;7.75;4.75;;;;;-146.59;100.00;59519.28;4979299;28;51092;-43
2022/06/05 13:00:47;;;;;;;;;8.50;6.00;;;;;-146.59;100.00;59519.28;4979553;28;51424;-42
2022/06/05 13:04:00;;;;;;;;;12.00;4.75;;;;;-146.59;100.00;59519.28;4978880;28;51167;-43
2022/06/05 13:07:05;;;;;;;;;7.50;5.00;;;;;-146.59;100.00;59519.28;4979837;28;51186;-44
2022/06/05 13:10:01;;;;;;;;;8.75;4.75;;;;;-146.59;100.00;59519.28;4979471;28;51341;-44
2022/06/05 13:12:52;;;;;;;;;8.75;4.00;;;;;-146.59;100.00;59519.28;4965149;28;51179;-45
2022/06/05 13:15:59;;;;;;;;;8.00;4.25;;;;;-146.59;100.00;59519.28;4967498;28;51197;-43
2022/06/05 13:19:10;;;;;;;;;9.50;3.75;;;;;-146.59;100.00;59519.28;4982406;28;51171;-44
2022/06/05 13:22:36;;;;;;;;;9.75;6.00;;;;;-146.59;100.00;59519.28;4983163;28;51216;-41
2022/06/05 13:25:49;;;;;;;;;7.00;4.50;;;;;-146.59;100.00;59519.28;4982744;28;51185;-42
2022/06/05 13:28:57;;;;;;;;;8.50;4.25;;;;;-146.59;100.00;59519.28;4983194;28;51192;-41
2022/06/05 13:32:11;;;;;;;;;10.50;3.75;;;;;-146.59;100.00;59519.28;4982842;28;51382;-44
2022/06/05 13:35:23;;;;;;;;;12.00;8.25;;;;;-146.59;100.00;59519.28;4968060;28;51201;-44
2022/06/05 13:38:48;;;;;;;;;10.75;4.75;;;;;-146.59;100.00;59519.28;4982606;28;51060;-45
2022/06/05 13:42:04;;;;;;;;;6.50;3.50;;;;;-146.59;100.00;59519.28;4974797;28;51372;-44
2022/06/05 13:45:09;;;;;;;;;9.00;4.75;;;;;-146.59;100.00;59519.28;4982096;28;51131;-42
2022/06/05 13:48:22;;;;;;;;;12.25;7.50;;;;;-146.59;100.00;59519.28;4982658;28;51179;-44
2022/06/05 13:51:35;;;;;;;;;9.75;3.25;;;;;-146.59;100.00;59519.28;4982067;28;51187;-43
2022/06/05 13:55:25;;;;;;;;;9.50;5.00;;;;;-146.59;100.00;59519.28;4982566;28;51116;-41